createdAt,value
2022-08-07T00:05:10.590Z,19.44
2022-08-07T00:10:33.573Z,19.52
2022-08-07T00:16:17.367Z,19.60
2022-08-07T00:21:56.195Z,19.55
2022-08-07T00:27:24.410Z,19.45
2022-08-07T00:33:00.869Z,19.77
2022-08-07T00:38:31.316Z,19.54
2022-08-07T00:44:07.113Z,19.65
2022-08-07T00:50:20.390Z,19.73
2022-08-07T00:55:25.385Z,19.83
2022-08-07T01:01:07.875Z,19.22
2022-08-07T01:06:33.043Z,19.58
2022-08-07T01:12:30.121Z,19.39
2022-08-07T01:17:56.193Z,19.18
2022-08-07T01:23:25.495Z,18.88
2022-08-07T01:29:10.641Z,19.47
2022-08-07T01:34:50.700Z,19.34
2022-08-07T01:40:24.013Z,19.37
2022-08-07T01:45:54.698Z,19.08
2022-08-07T01:52:02.833Z,19.01
2022-08-07T01:58:29.693Z,18.85
2022-08-07T02:04:02.060Z,19.16
2022-08-07T02:09:51.604Z,19.39
2022-08-07T02:15:16.147Z,19.50
2022-08-07T02:20:42.956Z,19.91
2022-08-07T02:26:33.016Z,19.36
2022-08-07T02:31:55.714Z,19.38
2022-08-07T02:37:23.165Z,19.67
2022-08-07T02:42:47.388Z,20.17
2022-08-07T02:48:10.513Z,20.21
2022-08-07T02:53:46.703Z,19.82
2022-08-07T02:59:27.439Z,20.05
2022-08-07T03:04:56.198Z,20.27
2022-08-07T03:10:23.502Z,20.46
2022-08-07T03:15:56.591Z,20.25
2022-08-07T03:21:33.130Z,20.46
2022-08-07T03:27:03.624Z,20.96
2022-08-07T03:32:49.032Z,21.08
2022-08-07T03:38:29.653Z,21.09
2022-08-07T03:44:02.449Z,20.97
2022-08-07T03:49:28.555Z,20.93
2022-08-07T03:55:06.318Z,21.23
2022-08-07T04:00:36.627Z,21.22
2022-08-07T04:05:59.986Z,21.27
2022-08-07T04:12:24.947Z,21.59
2022-08-07T04:17:29.373Z,21.78
2022-08-07T04:22:53.748Z,21.90
2022-08-07T04:28:24.987Z,22.09
2022-08-07T04:33:54.987Z,22.32
2022-08-07T04:39:25.775Z,22.70
2022-08-07T04:44:54.598Z,23.23
2022-08-07T04:50:52.881Z,23.45
2022-08-07T04:58:09.808Z,24.14
2022-08-07T05:02:29.116Z,24.58
2022-08-07T05:08:01.799Z,25.09
2022-08-07T05:14:53.106Z,25.66
2022-08-07T05:19:44.101Z,26.58
2022-08-07T05:25:25.501Z,27.18
2022-08-07T05:31:00.982Z,27.59
2022-08-07T05:36:39.154Z,27.84
2022-08-07T05:42:13.911Z,27.31
2022-08-07T05:48:01.331Z,26.84
2022-08-07T05:54:12.381Z,26.14
2022-08-07T05:59:19.431Z,25.83
2022-08-07T06:05:03.664Z,26.08
2022-08-07T06:10:28.478Z,26.07
2022-08-07T06:15:51.601Z,26.66
2022-08-07T06:22:15.203Z,27.27
2022-08-07T06:27:05.003Z,27.32
2022-08-07T06:32:29.441Z,27.11
2022-08-07T06:37:54.813Z,27.18
2022-08-07T06:43:22.556Z,27.28
2022-08-07T06:48:59.713Z,28.05
2022-08-07T06:55:31.199Z,28.54
2022-08-07T07:00:17.873Z,28.55
2022-08-07T07:06:04.187Z,28.91
2022-08-07T07:12:07.622Z,28.98
2022-08-07T07:17:23.870Z,29.10
2022-08-07T07:24:09.725Z,29.40
2022-08-07T07:29:57.248Z,29.48
2022-08-07T07:34:51.595Z,29.63
2022-08-07T07:40:20.601Z,30.08
2022-08-07T07:46:53.464Z,30.20
2022-08-07T07:51:58.084Z,30.15
2022-08-07T07:57:52.808Z,30.54
2022-08-07T08:04:10.573Z,30.70
2022-08-07T08:09:11.722Z,30.73
2022-08-07T08:14:44.631Z,30.84
2022-08-07T08:20:18.714Z,30.99
2022-08-07T08:26:12.755Z,31.12
2022-08-07T08:31:58.904Z,31.32
2022-08-07T08:38:00.325Z,31.44
2022-08-07T08:43:59.112Z,31.60
2022-08-07T08:50:04.969Z,31.66
2022-08-07T08:55:54.955Z,31.66
2022-08-07T09:01:58.524Z,31.64
2022-08-07T09:07:46.472Z,31.63
2022-08-07T09:13:41.887Z,31.77
2022-08-07T09:19:52.339Z,31.64
2022-08-07T09:25:37.536Z,31.30
2022-08-07T09:31:21.657Z,31.28
2022-08-07T09:37:01.173Z,31.08
2022-08-07T09:42:35.468Z,30.93
2022-08-07T09:49:59.577Z,31.40
2022-08-07T09:54:47.917Z,31.62
2022-08-07T10:00:14.397Z,31.76
2022-08-07T10:05:59.226Z,31.64
2022-08-07T10:12:01.963Z,31.44
2022-08-07T10:18:00.961Z,31.20
2022-08-07T10:24:05.121Z,31.01
2022-08-07T10:29:51.694Z,31.25
2022-08-07T10:35:20.483Z,31.75
2022-08-07T10:41:06.700Z,31.88
2022-08-07T10:46:36.549Z,31.82
2022-08-07T10:52:14.223Z,31.85
2022-08-07T10:58:02.168Z,31.82
2022-08-07T11:03:52.507Z,31.96
2022-08-07T11:10:07.237Z,31.97
2022-08-07T11:15:26.385Z,32.04
2022-08-07T11:21:00.889Z,32.13
2022-08-07T11:26:28.873Z,32.09
2022-08-07T11:32:13.876Z,32.07
2022-08-07T11:38:17.601Z,32.37
2022-08-07T11:44:10.889Z,32.39
2022-08-07T11:50:18.518Z,32.47
2022-08-07T11:56:09.274Z,32.52
2022-08-07T12:02:30.159Z,32.41
2022-08-07T12:08:31.825Z,32.38
2022-08-07T12:14:21.276Z,32.40
2022-08-07T12:20:10.339Z,32.04
2022-08-07T12:26:03.480Z,31.85
2022-08-07T12:32:42.091Z,30.88
2022-08-07T12:38:17.820Z,29.71
2022-08-07T12:44:12.888Z,29.15
2022-08-07T12:50:04.400Z,28.96
2022-08-07T12:56:02.319Z,28.55
2022-08-07T13:01:59.453Z,28.05
2022-08-07T13:08:13.751Z,27.37
2022-08-07T13:14:02.858Z,26.61
2022-08-07T13:19:46.312Z,25.81
2022-08-07T13:25:28.970Z,25.42
2022-08-07T13:31:12.890Z,25.22
2022-08-07T13:36:53.908Z,25.10
2022-08-07T13:42:24.753Z,24.94
2022-08-07T13:48:07.668Z,24.85
2022-08-07T13:53:59.542Z,24.59
2022-08-07T13:59:28.173Z,24.17
2022-08-07T14:04:55.258Z,23.83
2022-08-07T14:10:24.878Z,23.96
2022-08-07T14:16:04.351Z,23.82
2022-08-07T14:22:03.321Z,24.20
2022-08-07T14:28:11.084Z,23.73
2022-08-07T14:33:11.744Z,23.63
2022-08-07T14:38:50.462Z,23.59
2022-08-07T14:44:15.649Z,23.75
2022-08-07T14:49:57.665Z,23.78
2022-08-07T14:55:34.581Z,23.95
2022-08-07T15:01:21.957Z,23.92
2022-08-07T15:06:48.107Z,23.91
2022-08-07T15:12:26.224Z,23.93
2022-08-07T15:25:16.381Z,23.97
2022-08-07T15:30:09.919Z,23.94
2022-08-07T15:36:02.432Z,23.93
2022-08-07T15:48:00.162Z,23.40
2022-08-07T15:52:57.708Z,22.90
2022-08-07T15:58:59.393Z,22.90
2022-08-07T16:04:30.400Z,22.88
2022-08-07T16:10:05.906Z,22.81
2022-08-07T16:16:48.417Z,23.25
2022-08-07T16:22:31.519Z,21.97
2022-08-07T16:27:57.362Z,21.54
2022-08-07T16:34:03.323Z,21.13
2022-08-07T16:39:59.068Z,21.04
2022-08-07T16:46:47.224Z,20.92
2022-08-07T16:52:01.989Z,20.57
2022-08-07T16:58:01.974Z,20.85
2022-08-07T17:03:58.163Z,20.67
2022-08-07T17:10:08.441Z,20.37
2022-08-07T17:15:50.534Z,20.40
2022-08-07T17:21:22.799Z,20.52
2022-08-07T17:28:07.976Z,20.60
2022-08-07T17:34:15.212Z,20.66
2022-08-07T17:39:58.778Z,20.72
2022-08-07T17:45:23.531Z,20.67
2022-08-07T17:50:47.180Z,20.46
2022-08-07T18:09:08.766Z,20.09
2022-08-07T18:15:01.964Z,20.01
2022-08-07T18:21:09.613Z,19.63
2022-08-07T18:27:00.376Z,19.87
2022-08-07T18:33:15.414Z,20.11
2022-08-07T18:40:07.757Z,20.06
2022-08-07T18:45:44.736Z,19.74
2022-08-07T18:51:14.966Z,19.76
2022-08-07T18:57:06.143Z,19.94
2022-08-07T19:02:57.318Z,19.99
2022-08-07T19:08:54.914Z,19.96
2022-08-07T19:16:02.416Z,19.96
2022-08-07T19:21:47.943Z,19.80
2022-08-07T19:28:56.698Z,19.96
2022-08-07T19:32:59.742Z,20.00
2022-08-07T19:38:27.825Z,19.97
2022-08-07T19:43:55.730Z,19.54
2022-08-07T19:49:58.373Z,19.93
2022-08-07T19:55:11.191Z,19.75
2022-08-07T20:00:54.000Z,19.57
2022-08-07T20:06:30.579Z,19.50
2022-08-07T20:12:22.706Z,19.51
2022-08-07T20:17:41.582Z,19.23
2022-08-07T20:23:32.958Z,19.40
2022-08-07T20:29:00.343Z,19.43
2022-08-07T20:34:52.261Z,19.15
2022-08-07T20:40:33.191Z,19.07
2022-08-07T20:46:26.189Z,19.50
2022-08-07T20:51:50.657Z,19.11
2022-08-07T20:57:14.078Z,19.33
2022-08-07T21:03:03.808Z,19.27
2022-08-07T21:08:37.723Z,19.02
2022-08-07T21:14:33.985Z,19.07
2022-08-07T21:20:05.718Z,19.12
2022-08-07T21:25:45.504Z,18.99
2022-08-07T21:31:31.327Z,19.03
2022-08-07T21:37:31.456Z,18.98
2022-08-07T21:43:14.525Z,18.89
2022-08-07T21:48:56.929Z,18.90
2022-08-07T21:54:34.870Z,18.82
2022-08-07T22:00:23.057Z,18.78
2022-08-07T22:05:50.698Z,18.81
2022-08-07T22:11:18.181Z,18.74
2022-08-07T22:16:46.895Z,18.67
2022-08-07T22:22:21.262Z,18.44
2022-08-07T22:28:33.304Z,18.61
2022-08-07T22:34:05.219Z,18.50
2022-08-07T22:39:51.969Z,18.50
2022-08-07T22:46:04.081Z,18.43
2022-08-07T22:51:36.529Z,18.43
2022-08-07T22:57:04.110Z,18.43
2022-08-07T23:02:38.027Z,18.44
2022-08-07T23:08:39.876Z,18.45
2022-08-07T23:14:35.024Z,18.36
2022-08-07T23:20:51.538Z,18.34
2022-08-07T23:26:19.638Z,18.16
2022-08-07T23:34:18.970Z,18.29
2022-08-07T23:38:09.221Z,18.28
2022-08-07T23:43:59.528Z,18.21
2022-08-07T23:49:49.958Z,18.27
2022-08-07T23:55:53.237Z,18.02
